createdAt,value
2019-02-15T00:00:40.731Z,63.99
2019-02-15T00:03:10.175Z,63.99
2019-02-15T00:05:39.594Z,64.05
2019-02-15T00:08:09.026Z,63.90
2019-02-15T00:10:38.451Z,63.80
2019-02-15T00:13:13.534Z,63.74
2019-02-15T00:15:39.057Z,64.00
2019-02-15T00:18:08.267Z,63.90
2019-02-15T00:20:45.051Z,63.90
2019-02-15T00:23:14.485Z,63.78
2019-02-15T00:25:43.922Z,63.95
2019-02-15T00:28:13.371Z,64.11
2019-02-15T00:30:42.960Z,64.35
2019-02-15T00:33:12.396Z,64.65
2019-02-15T00:35:41.842Z,64.38
2019-02-15T00:38:11.277Z,64.31
2019-02-15T00:40:40.697Z,64.50
2019-02-15T00:43:10.129Z,64.54
2019-02-15T00:45:43.627Z,64.61
2019-02-15T00:48:14.694Z,64.42
2019-02-15T00:50:51.787Z,65.11
2019-02-15T00:53:25.690Z,65.38
2019-02-15T00:55:59.369Z,64.94
2019-02-15T00:58:30.449Z,65.08
2019-02-15T01:01:07.158Z,65.46
2019-02-15T01:03:40.671Z,65.47
2019-02-15T01:06:26.534Z,65.97
2019-02-15T01:09:03.374Z,65.86
2019-02-15T01:11:40.275Z,65.54
2019-02-15T01:14:09.698Z,65.30
2019-02-15T01:16:39.140Z,65.39
2019-02-15T01:19:08.561Z,65.59
2019-02-15T01:21:38.012Z,65.73
2019-02-15T01:24:07.432Z,65.40
2019-02-15T01:26:38.485Z,65.39
2019-02-15T01:29:09.583Z,65.08
2019-02-15T01:31:43.424Z,65.16
2019-02-15T01:34:17.151Z,65.58
2019-02-15T01:36:48.230Z,65.78
2019-02-15T01:39:31.298Z,65.71
2019-02-15T01:42:08.126Z,65.91
2019-02-15T01:44:39.186Z,65.82
2019-02-15T01:47:10.263Z,65.43
2019-02-15T01:49:39.764Z,65.27
2019-02-15T01:52:09.200Z,65.43
2019-02-15T01:54:38.645Z,65.15
2019-02-15T01:57:08.080Z,65.14
2019-02-15T01:59:37.522Z,65.72
2019-02-15T02:02:06.937Z,66.21
2019-02-15T02:04:36.360Z,66.91
2019-02-15T02:07:05.791Z,66.89
2019-02-15T02:09:35.278Z,66.47
2019-02-15T02:12:05.591Z,67.19
2019-02-15T02:14:35.015Z,67.40
2019-02-15T02:17:04.432Z,67.38
2019-02-15T02:19:34.109Z,66.91
2019-02-15T02:22:03.603Z,67.08
2019-02-15T02:24:33.037Z,66.57
2019-02-15T02:27:02.455Z,66.51
2019-02-15T02:29:31.892Z,66.58
2019-02-15T02:32:01.322Z,66.73
2019-02-15T02:34:30.765Z,66.57
2019-02-15T02:37:00.221Z,66.47
2019-02-15T02:39:29.625Z,66.66
2019-02-15T02:41:59.039Z,66.52
2019-02-15T02:44:28.507Z,66.49
2019-02-15T02:46:57.922Z,66.88
2019-02-15T02:49:27.390Z,67.01
2019-02-15T02:51:56.873Z,67.43
2019-02-15T02:54:26.320Z,67.19
2019-02-15T02:56:55.736Z,66.91
2019-02-15T02:59:25.189Z,66.89
2019-02-15T03:01:54.607Z,66.83
2019-02-15T03:04:24.039Z,67.09
2019-02-15T03:06:53.469Z,67.53
2019-02-15T03:09:22.948Z,67.59
2019-02-15T03:11:52.415Z,67.69
2019-02-15T03:14:21.848Z,67.74
2019-02-15T03:16:51.266Z,67.44
2019-02-15T03:19:20.726Z,67.18
2019-02-15T03:21:50.140Z,67.20
2019-02-15T03:24:19.597Z,67.05
2019-02-15T03:26:49.023Z,66.89
2019-02-15T03:29:18.455Z,66.95
2019-02-15T03:31:47.877Z,67.03
2019-02-15T03:34:17.342Z,66.89
2019-02-15T03:36:48.406Z,66.79
2019-02-15T03:39:28.160Z,66.82
2019-02-15T03:41:57.597Z,67.05
2019-02-15T03:44:27.115Z,67.29
2019-02-15T03:46:56.573Z,67.30
2019-02-15T03:49:25.963Z,67.30
2019-02-15T03:51:55.391Z,67.48
2019-02-15T03:54:24.835Z,67.74
2019-02-15T03:56:54.257Z,68.25
2019-02-15T03:59:23.689Z,69.18
2019-02-15T04:01:53.124Z,69.61
2019-02-15T04:04:22.563Z,69.99
2019-02-15T04:06:52.002Z,70.03
2019-02-15T04:09:21.477Z,70.63
2019-02-15T04:11:50.879Z,70.50
2019-02-15T04:14:20.309Z,70.63
2019-02-15T04:16:49.846Z,71.57
2019-02-15T04:19:19.283Z,71.82
2019-02-15T04:21:48.728Z,72.38
2019-02-15T04:24:18.195Z,72.56
2019-02-15T04:26:47.602Z,72.19
2019-02-15T04:29:17.034Z,71.71
2019-02-15T04:31:46.463Z,71.39
2019-02-15T04:34:15.896Z,71.83
2019-02-15T04:36:45.321Z,71.75
2019-02-15T04:39:14.757Z,72.40
2019-02-15T04:41:44.251Z,72.20
2019-02-15T04:44:13.698Z,73.38
2019-02-15T04:46:43.182Z,73.12
2019-02-15T04:49:12.674Z,73.19
2019-02-15T04:51:42.111Z,73.09
2019-02-15T04:54:11.551Z,72.72
2019-02-15T04:56:40.987Z,72.97
2019-02-15T04:59:10.425Z,72.88
2019-02-15T05:01:39.851Z,73.33
2019-02-15T05:04:09.277Z,73.17
2019-02-15T05:06:38.699Z,72.81
2019-02-15T05:09:08.148Z,72.29
2019-02-15T05:11:37.584Z,72.42
2019-02-15T05:14:07.080Z,72.59
2019-02-15T05:16:36.504Z,72.36
2019-02-15T05:19:05.937Z,71.93
2019-02-15T05:21:35.364Z,72.07
2019-02-15T05:24:04.798Z,71.67
2019-02-15T05:26:34.246Z,71.61
2019-02-15T05:29:03.693Z,71.61
2019-02-15T05:31:33.129Z,71.59
2019-02-15T05:34:02.589Z,71.37
2019-02-15T05:36:32.023Z,70.96
2019-02-15T05:39:01.459Z,71.32
2019-02-15T05:41:30.899Z,71.33
2019-02-15T05:44:00.367Z,71.15
2019-02-15T05:46:29.789Z,71.15
2019-02-15T05:48:59.211Z,71.04
2019-02-15T05:51:28.645Z,71.08
2019-02-15T05:53:58.094Z,71.07
2019-02-15T05:56:27.521Z,71.42
2019-02-15T05:58:56.956Z,71.18
2019-02-15T06:01:27.643Z,70.96
2019-02-15T06:03:57.092Z,70.94
2019-02-15T06:06:26.539Z,71.22
2019-02-15T06:08:55.983Z,71.12
2019-02-15T06:11:25.428Z,70.99
2019-02-15T06:13:54.849Z,70.69
2019-02-15T06:16:24.293Z,70.91
2019-02-15T06:18:53.726Z,70.72
2019-02-15T06:21:23.173Z,70.75
2019-02-15T06:23:52.668Z,70.46
2019-02-15T06:26:22.102Z,70.47
2019-02-15T06:28:51.533Z,70.53
2019-02-15T06:31:20.988Z,70.92
2019-02-15T06:33:50.415Z,71.02
2019-02-15T06:36:19.865Z,70.65
2019-02-15T06:38:49.286Z,70.57
2019-02-15T06:41:18.743Z,70.78
2019-02-15T06:43:48.164Z,70.91
2019-02-15T06:46:17.619Z,70.45
2019-02-15T06:48:47.048Z,70.32
2019-02-15T06:51:16.508Z,70.31
2019-02-15T06:53:45.937Z,70.03
2019-02-15T06:56:15.430Z,70.19
2019-02-15T06:58:46.473Z,69.95
2019-02-15T07:01:17.553Z,69.75
2019-02-15T07:04:00.415Z,69.34
2019-02-15T07:06:29.875Z,69.05
2019-02-15T07:08:59.301Z,68.93
2019-02-15T07:11:28.753Z,69.07
2019-02-15T07:13:58.189Z,68.86
2019-02-15T07:16:27.627Z,69.08
2019-02-15T07:18:57.049Z,69.31
2019-02-15T07:21:26.494Z,69.00
2019-02-15T07:23:55.926Z,69.09
2019-02-15T07:26:25.371Z,69.22
2019-02-15T07:28:54.897Z,68.98
2019-02-15T07:31:24.350Z,68.85
2019-02-15T07:33:53.773Z,68.65
2019-02-15T07:36:23.216Z,68.42
2019-02-15T07:38:52.827Z,68.82
2019-02-15T07:41:22.283Z,68.83
2019-02-15T07:43:51.717Z,68.10
2019-02-15T07:46:21.165Z,67.36
2019-02-15T07:48:50.607Z,67.09
2019-02-15T07:51:20.068Z,67.25
2019-02-15T07:53:49.506Z,66.10
2019-02-15T07:56:18.941Z,64.31
2019-02-15T07:58:48.375Z,63.37
2019-02-15T08:01:17.821Z,61.25
2019-02-15T08:03:47.272Z,59.09
2019-02-15T08:06:16.697Z,55.50
2019-02-15T08:08:46.103Z,53.24
2019-02-15T08:11:15.556Z,52.26
2019-02-15T08:13:44.990Z,49.84
2019-02-15T08:16:14.427Z,48.53
2019-02-15T08:18:43.846Z,47.64
2019-02-15T08:21:13.389Z,47.17
2019-02-15T08:23:42.803Z,46.06
2019-02-15T08:26:12.248Z,45.41
2019-02-15T08:28:41.703Z,44.68
2019-02-15T08:31:11.166Z,43.79
2019-02-15T08:33:40.598Z,43.82
2019-02-15T08:36:10.056Z,42.25
2019-02-15T08:38:39.495Z,42.36
2019-02-15T08:41:08.965Z,41.14
2019-02-15T08:43:38.391Z,40.95
2019-02-15T08:46:07.842Z,40.08
2019-02-15T08:48:45.718Z,39.46
2019-02-15T08:51:08.439Z,39.40
2019-02-15T08:53:37.893Z,40.27
2019-02-15T08:56:07.331Z,39.07
2019-02-15T08:58:36.778Z,39.27
2019-02-15T09:01:06.225Z,39.27
2019-02-15T09:03:35.654Z,38.88
2019-02-15T09:06:05.086Z,39.15
2019-02-15T09:08:34.537Z,38.76
2019-02-15T09:11:03.969Z,37.79
2019-02-15T09:13:33.427Z,37.63
2019-02-15T09:16:09.981Z,37.22
2019-02-15T09:18:34.042Z,37.10
2019-02-15T09:21:03.473Z,37.25
2019-02-15T09:23:32.911Z,36.93
2019-02-15T09:26:02.359Z,37.08
2019-02-15T09:28:40.283Z,36.10
2019-02-15T09:31:09.702Z,36.98
2019-02-15T09:33:39.152Z,37.75
2019-02-15T09:36:08.578Z,37.43
2019-02-15T09:38:38.031Z,37.58
2019-02-15T09:41:07.462Z,37.38
2019-02-15T09:43:36.926Z,36.23
2019-02-15T09:46:06.361Z,36.10
2019-02-15T09:48:35.826Z,36.36
2019-02-15T09:51:05.254Z,36.44
2019-02-15T09:53:34.720Z,36.00
2019-02-15T09:56:04.164Z,36.57
2019-02-15T09:58:33.784Z,36.69
2019-02-15T10:01:03.213Z,36.18
2019-02-15T10:03:32.699Z,36.22
2019-02-15T10:06:02.138Z,36.14
2019-02-15T10:08:31.578Z,36.01
2019-02-15T10:11:01.029Z,35.21
2019-02-15T10:13:30.457Z,35.70
2019-02-15T10:15:59.910Z,35.31
2019-02-15T10:18:39.137Z,34.89
2019-02-15T10:21:08.579Z,33.59
2019-02-15T10:23:38.017Z,33.71
2019-02-15T10:26:07.472Z,33.21
2019-02-15T10:28:36.913Z,33.39
2019-02-15T10:31:06.359Z,32.56
2019-02-15T10:33:35.824Z,32.86
2019-02-15T10:36:05.287Z,33.12
2019-02-15T10:38:34.738Z,32.03
2019-02-15T10:41:04.183Z,32.69
2019-02-15T10:43:33.635Z,32.89
2019-02-15T10:46:03.070Z,32.69
2019-02-15T10:48:32.510Z,33.10
2019-02-15T10:51:02.026Z,31.08
2019-02-15T10:53:31.469Z,31.46
2019-02-15T10:56:00.930Z,31.86
2019-02-15T10:58:30.362Z,31.34
2019-02-15T11:00:59.818Z,31.58
2019-02-15T11:03:29.285Z,30.44
2019-02-15T11:05:58.728Z,30.30
2019-02-15T11:08:28.149Z,30.44
2019-02-15T11:10:57.606Z,30.63
2019-02-15T11:13:27.038Z,30.12
2019-02-15T11:15:56.482Z,29.63
2019-02-15T11:18:28.335Z,29.08
2019-02-15T11:20:57.776Z,29.27
2019-02-15T11:23:27.218Z,30.69
2019-02-15T11:25:56.661Z,30.65
2019-02-15T11:28:26.127Z,30.19
2019-02-15T11:30:55.567Z,30.30
2019-02-15T11:33:24.991Z,30.46
2019-02-15T11:35:54.451Z,30.36
2019-02-15T11:38:23.876Z,29.46
2019-02-15T11:40:53.323Z,29.60
2019-02-15T11:43:22.758Z,28.82
2019-02-15T11:45:52.207Z,29.75
2019-02-15T11:48:22.648Z,30.90
2019-02-15T11:50:52.113Z,30.26
2019-02-15T11:53:21.542Z,30.43
2019-02-15T11:55:51.021Z,30.09
2019-02-15T11:58:20.440Z,29.61
2019-02-15T12:00:49.904Z,30.00
2019-02-15T12:03:19.347Z,30.57
2019-02-15T12:05:48.775Z,31.24
2019-02-15T12:08:18.221Z,31.65
2019-02-15T12:10:47.647Z,31.76
2019-02-15T12:13:17.091Z,31.61
2019-02-15T12:15:46.590Z,32.16
2019-02-15T12:18:16.037Z,32.73
2019-02-15T12:20:45.476Z,32.60
2019-02-15T12:23:14.940Z,32.66
2019-02-15T12:25:44.374Z,32.45
2019-02-15T12:28:13.833Z,32.82
2019-02-15T12:30:43.293Z,32.73
2019-02-15T12:33:12.707Z,33.35
2019-02-15T12:35:42.128Z,33.75
2019-02-15T12:38:11.633Z,34.56
2019-02-15T12:40:41.048Z,34.62
2019-02-15T12:43:10.514Z,33.52
2019-02-15T12:45:40.019Z,34.29
2019-02-15T12:48:09.528Z,34.37
2019-02-15T12:50:38.909Z,33.75
2019-02-15T12:53:08.369Z,34.06
2019-02-15T12:55:37.810Z,34.12
2019-02-15T12:58:07.268Z,34.27
2019-02-15T13:00:36.761Z,34.16
2019-02-15T13:03:06.216Z,33.88
2019-02-15T13:05:35.645Z,34.66
2019-02-15T13:08:05.269Z,35.31
2019-02-15T13:10:36.337Z,35.17
2019-02-15T13:13:05.794Z,34.99
2019-02-15T13:15:35.222Z,35.41
2019-02-15T13:18:04.669Z,34.60
2019-02-15T13:20:34.100Z,35.20
2019-02-15T13:23:03.554Z,34.83
2019-02-15T13:25:36.741Z,35.01
2019-02-15T13:28:04.192Z,34.65
2019-02-15T13:30:33.626Z,35.19
2019-02-15T13:33:03.126Z,34.91
2019-02-15T13:35:32.538Z,34.88
2019-02-15T13:38:02.008Z,34.80
2019-02-15T13:40:31.442Z,35.54
2019-02-15T13:43:00.922Z,34.37
2019-02-15T13:45:30.353Z,34.17
2019-02-15T13:47:59.839Z,33.76
2019-02-15T13:50:29.265Z,33.33
2019-02-15T13:52:58.731Z,33.60
2019-02-15T13:55:28.199Z,33.43
2019-02-15T13:57:57.655Z,32.47
2019-02-15T14:00:27.140Z,33.29
2019-02-15T14:02:56.626Z,33.13
2019-02-15T14:05:26.063Z,33.84
2019-02-15T14:07:55.541Z,33.34
2019-02-15T14:10:24.987Z,33.48
2019-02-15T14:12:54.475Z,33.90
2019-02-15T14:15:23.918Z,34.35
2019-02-15T14:17:53.366Z,34.31
2019-02-15T14:20:22.878Z,35.70
2019-02-15T14:22:52.323Z,35.54
2019-02-15T14:25:21.786Z,36.59
2019-02-15T14:27:51.214Z,37.40
2019-02-15T14:30:20.677Z,36.29
2019-02-15T14:32:50.965Z,36.70
2019-02-15T14:35:20.451Z,37.70
2019-02-15T14:37:49.879Z,36.84
2019-02-15T14:40:19.366Z,36.30
2019-02-15T14:42:49.402Z,36.19
2019-02-15T14:45:19.162Z,36.42
2019-02-15T14:47:55.003Z,36.67
2019-02-15T14:50:19.775Z,36.72
2019-02-15T14:52:49.219Z,37.00
2019-02-15T14:55:18.684Z,37.29
2019-02-15T14:57:48.105Z,37.02
2019-02-15T15:00:17.639Z,37.05
2019-02-15T15:02:47.090Z,38.30
2019-02-15T15:05:16.555Z,38.40
2019-02-15T15:07:45.982Z,38.80
2019-02-15T15:10:15.451Z,39.68
2019-02-15T15:12:44.875Z,39.77
2019-02-15T15:15:17.703Z,40.41
2019-02-15T15:17:47.221Z,41.43
2019-02-15T15:20:16.945Z,42.29
2019-02-15T15:22:46.433Z,43.11
2019-02-15T15:25:16.514Z,43.78
2019-02-15T15:27:46.020Z,41.19
2019-02-15T15:30:16.509Z,41.13
2019-02-15T15:32:45.949Z,41.34
2019-02-15T15:35:15.421Z,38.90
2019-02-15T15:37:44.852Z,39.41
2019-02-15T15:40:17.091Z,39.00
2019-02-15T15:42:46.551Z,38.87
2019-02-15T15:45:16.027Z,38.65
2019-02-15T15:47:45.460Z,38.98
2019-02-15T15:50:15.072Z,39.07
2019-02-15T15:52:44.502Z,39.64
2019-02-15T15:55:14.604Z,40.22
2019-02-15T15:57:44.043Z,40.76
2019-02-15T16:00:16.939Z,40.25
2019-02-15T16:02:46.394Z,40.20
2019-02-15T16:05:15.849Z,40.38
2019-02-15T16:07:45.274Z,40.15
2019-02-15T16:10:15.750Z,40.94
2019-02-15T16:12:45.199Z,41.31
2019-02-15T16:15:16.073Z,41.23
2019-02-15T16:17:45.576Z,41.33
2019-02-15T16:20:15.369Z,41.29
2019-02-15T16:22:44.894Z,41.90
2019-02-15T16:25:14.358Z,42.12
2019-02-15T16:27:43.805Z,41.95
2019-02-15T16:30:17.059Z,42.81
2019-02-15T16:32:46.502Z,43.29
2019-02-15T16:35:15.958Z,42.50
2019-02-15T16:37:45.434Z,43.53
2019-02-15T16:40:16.180Z,43.64
2019-02-15T16:42:45.612Z,44.68
2019-02-15T16:45:18.320Z,44.25
2019-02-15T16:47:47.756Z,44.09
2019-02-15T16:50:17.217Z,44.42
2019-02-15T16:52:46.643Z,44.64
2019-02-15T16:55:16.122Z,44.70
2019-02-15T16:57:45.576Z,45.04
2019-02-15T17:00:15.467Z,45.29
2019-02-15T17:02:44.947Z,45.73
2019-02-15T17:05:14.436Z,45.81
2019-02-15T17:07:43.882Z,46.16
2019-02-15T17:10:13.481Z,46.52
2019-02-15T17:12:42.927Z,46.60
2019-02-15T17:15:15.874Z,46.91
2019-02-15T17:17:45.313Z,47.04
2019-02-15T17:20:14.801Z,47.23
2019-02-15T17:22:44.238Z,47.29
2019-02-15T17:25:13.722Z,47.58
2019-02-15T17:27:43.158Z,47.78
2019-02-15T17:30:13.050Z,47.79
2019-02-15T17:32:42.491Z,48.15
2019-02-15T17:35:12.583Z,48.35
2019-02-15T17:37:42.038Z,48.47
2019-02-15T17:40:16.823Z,48.95
2019-02-15T17:42:46.254Z,49.18
2019-02-15T17:45:15.708Z,49.48
2019-02-15T17:47:45.147Z,49.59
2019-02-15T17:50:14.857Z,49.68
2019-02-15T17:52:44.273Z,49.99
2019-02-15T17:55:13.764Z,50.32
2019-02-15T17:57:43.265Z,50.12
2019-02-15T18:00:16.663Z,50.45
2019-02-15T18:02:46.110Z,50.38
2019-02-15T18:05:18.470Z,50.47
2019-02-15T18:07:50.067Z,51.42
2019-02-15T18:10:19.584Z,50.99
2019-02-15T18:12:49.053Z,50.67
2019-02-15T18:15:18.457Z,50.85
2019-02-15T18:17:47.914Z,51.11
2019-02-15T18:20:17.328Z,51.16
2019-02-15T18:22:46.784Z,51.43
2019-02-15T18:25:16.230Z,51.61
2019-02-15T18:27:47.157Z,51.61
2019-02-15T18:30:17.398Z,52.24
2019-02-15T18:32:46.859Z,52.31
2019-02-15T18:35:16.365Z,52.99
2019-02-15T18:37:45.842Z,52.83
2019-02-15T18:40:15.251Z,53.11
2019-02-15T18:42:44.717Z,53.04
2019-02-15T18:45:16.719Z,53.44
2019-02-15T18:47:47.350Z,53.75
2019-02-15T18:50:16.783Z,53.51
2019-02-15T18:52:46.303Z,53.78
2019-02-15T18:55:15.733Z,54.12
2019-02-15T18:57:45.181Z,54.57
2019-02-15T19:00:16.378Z,54.77
2019-02-15T19:02:48.739Z,55.28
2019-02-15T19:05:18.167Z,55.23
2019-02-15T19:07:47.619Z,55.28
2019-02-15T19:10:22.298Z,55.46
2019-02-15T19:12:51.768Z,55.68
2019-02-15T19:15:21.196Z,55.86
2019-02-15T19:17:50.673Z,56.42
2019-02-15T19:20:20.163Z,56.47
2019-02-15T19:22:49.651Z,56.91
2019-02-15T19:25:20.823Z,56.91
2019-02-15T19:27:50.288Z,56.64
2019-02-15T19:30:30.385Z,56.98
2019-02-15T19:32:59.828Z,56.92
2019-02-15T19:35:29.265Z,57.10
2019-02-15T19:37:58.726Z,57.12
2019-02-15T19:40:28.157Z,57.27
2019-02-15T19:43:05.114Z,57.25
2019-02-15T19:45:34.554Z,57.29
2019-02-15T19:48:04.014Z,57.62
2019-02-15T19:50:33.441Z,57.84
2019-02-15T19:53:02.980Z,57.88
2019-02-15T19:55:32.478Z,58.13
2019-02-15T19:58:01.890Z,58.21
2019-02-15T20:00:31.297Z,58.38
2019-02-15T20:03:00.750Z,58.43
2019-02-15T20:05:30.186Z,58.59
2019-02-15T20:07:59.754Z,58.70
2019-02-15T20:10:29.567Z,58.77
2019-02-15T20:13:00.779Z,58.03
2019-02-15T20:15:30.175Z,57.96
2019-02-15T20:17:59.626Z,58.24
2019-02-15T20:20:29.053Z,57.63
2019-02-15T20:22:58.547Z,58.13
2019-02-15T20:25:27.965Z,58.15
2019-02-15T20:27:57.393Z,58.79
2019-02-15T20:30:26.842Z,59.21
2019-02-15T20:32:56.305Z,59.36
2019-02-15T20:35:25.736Z,59.57
2019-02-15T20:37:55.184Z,60.11
2019-02-15T20:40:24.681Z,60.33
2019-02-15T20:42:54.139Z,60.48
2019-02-15T20:45:24.206Z,60.10
2019-02-15T20:47:53.671Z,60.36
2019-02-15T20:50:23.171Z,60.41
2019-02-15T20:52:52.638Z,60.77
2019-02-15T20:55:22.079Z,60.39
2019-02-15T20:57:51.554Z,60.57
2019-02-15T21:00:26.597Z,60.69
2019-02-15T21:02:56.046Z,60.71
2019-02-15T21:05:25.498Z,60.83
2019-02-15T21:07:54.961Z,61.03
2019-02-15T21:10:24.466Z,60.96
2019-02-15T21:12:53.916Z,61.22
2019-02-15T21:15:24.302Z,61.39
2019-02-15T21:17:53.898Z,61.45
2019-02-15T21:20:24.704Z,61.33
2019-02-15T21:22:54.261Z,61.37
2019-02-15T21:25:23.691Z,61.74
2019-02-15T21:27:53.150Z,61.58
2019-02-15T21:30:22.580Z,61.44
2019-02-15T21:32:52.042Z,61.35
2019-02-15T21:35:21.474Z,61.58
2019-02-15T21:37:50.916Z,61.80
2019-02-15T21:40:20.407Z,61.91
2019-02-15T21:42:52.005Z,61.90
2019-02-15T21:45:21.031Z,61.68
2019-02-15T21:47:50.480Z,61.89
2019-02-15T21:50:19.940Z,61.91
2019-02-15T21:52:49.406Z,61.03
2019-02-15T21:55:18.846Z,61.17
2019-02-15T21:57:48.293Z,60.81
2019-02-15T22:00:23.702Z,61.66
2019-02-15T22:02:53.163Z,61.87
2019-02-15T22:05:22.607Z,61.90
2019-02-15T22:07:52.069Z,62.00
2019-02-15T22:10:21.503Z,61.98
2019-02-15T22:12:50.950Z,62.33
2019-02-15T22:15:20.379Z,62.41
2019-02-15T22:17:49.842Z,62.36
2019-02-15T22:20:26.412Z,62.56
2019-02-15T22:22:50.460Z,62.45
2019-02-15T22:25:19.872Z,62.21
2019-02-15T22:27:49.318Z,61.92
2019-02-15T22:30:21.870Z,62.41
2019-02-15T22:32:51.309Z,62.30
2019-02-15T22:35:20.758Z,61.99
2019-02-15T22:37:50.231Z,61.99
2019-02-15T22:40:30.814Z,62.02
2019-02-15T22:43:13.059Z,61.58
2019-02-15T22:45:42.492Z,61.75
2019-02-15T22:48:12.027Z,61.77
2019-02-15T22:50:41.448Z,61.43
2019-02-15T22:53:10.897Z,60.82
2019-02-15T22:55:40.331Z,60.07
2019-02-15T22:58:09.772Z,60.78
2019-02-15T23:00:54.248Z,61.39
2019-02-15T23:03:26.394Z,61.34
2019-02-15T23:05:55.965Z,60.22
2019-02-15T23:08:25.580Z,60.41
2019-02-15T23:10:55.016Z,60.77
2019-02-15T23:13:24.467Z,60.87
2019-02-15T23:15:53.904Z,60.98
2019-02-15T23:18:23.360Z,61.26
2019-02-15T23:20:52.793Z,61.31
2019-02-15T23:23:22.256Z,61.58
2019-02-15T23:25:51.690Z,61.42
2019-02-15T23:28:21.136Z,61.66
2019-02-15T23:30:50.560Z,61.65
2019-02-15T23:33:20.030Z,61.99
2019-02-15T23:35:49.453Z,62.26
2019-02-15T23:38:18.923Z,62.39
2019-02-15T23:40:48.336Z,62.00
2019-02-15T23:43:17.771Z,61.91
2019-02-15T23:45:47.192Z,61.56
2019-02-15T23:48:16.641Z,61.87
2019-02-15T23:50:54.206Z,62.39
2019-02-15T23:53:17.233Z,61.47
2019-02-15T23:55:46.674Z,61.58
2019-02-15T23:58:16.124Z,61.33
